Terminal Aerodrome Forecast
Issued by NWS Nashville, TN

Home | Current Version | Previous Version | Text Only | Print | Product List | Glossary On
Versions: 1 2 3 4 5 6 7 8 9 10 11 12 13 14 15 16 17 18
047
FTUS44 KOHX 261721
TAFCSV
TAF
KCSV 261721Z 2618/2718 05004KT P6SM SCT050 SCT250
     FM262100 06005KT P6SM VCTS BKN045CB
     FM270300 00000KT P6SM FEW060 SCT150
      TEMPO 2708/2712 4SM BR=

USA.gov is the U.S. government's official web portal to all federal, state and local government web resources and services.